sensor_id;sensor_type;location;lat;lon;timestamp;P1;durP1;ratioP1;P2;durP2;ratioP2
11496;SDS011;5805;51.542;7.230;2023-04-06T00:00:48;8.93;;;6.43;;
11496;SDS011;5805;51.542;7.230;2023-04-06T00:03:15;11.52;;;6.57;;
11496;SDS011;5805;51.542;7.230;2023-04-06T00:05:41;10.30;;;6.68;;
11496;SDS011;5805;51.542;7.230;2023-04-06T00:08:07;10.02;;;6.53;;
11496;SDS011;5805;51.542;7.230;2023-04-06T00:10:33;7.85;;;6.28;;
11496;SDS011;5805;51.542;7.230;2023-04-06T00:12:59;9.23;;;6.07;;
11496;SDS011;5805;51.542;7.230;2023-04-06T00:15:25;10.98;;;6.20;;
11496;SDS011;5805;51.542;7.230;2023-04-06T00:17:50;7.60;;;5.85;;
11496;SDS011;5805;51.542;7.230;2023-04-06T00:20:18;12.30;;;6.10;;
11496;SDS011;5805;51.542;7.230;2023-04-06T00:22:44;10.97;;;6.30;;
11496;SDS011;5805;51.542;7.230;2023-04-06T00:25:10;8.98;;;6.40;;
11496;SDS011;5805;51.542;7.230;2023-04-06T00:27:36;8.57;;;6.25;;
11496;SDS011;5805;51.542;7.230;2023-04-06T00:30:02;7.82;;;6.07;;
11496;SDS011;5805;51.542;7.230;2023-04-06T00:32:28;11.02;;;6.75;;
11496;SDS011;5805;51.542;7.230;2023-04-06T00:34:54;9.27;;;6.18;;
11496;SDS011;5805;51.542;7.230;2023-04-06T00:37:21;10.73;;;6.40;;
11496;SDS011;5805;51.542;7.230;2023-04-06T00:39:47;10.25;;;6.78;;
11496;SDS011;5805;51.542;7.230;2023-04-06T00:42:13;8.98;;;6.57;;
11496;SDS011;5805;51.542;7.230;2023-04-06T00:44:39;9.23;;;6.50;;
11496;SDS011;5805;51.542;7.230;2023-04-06T00:47:05;7.97;;;6.03;;
11496;SDS011;5805;51.542;7.230;2023-04-06T00:49:32;10.30;;;6.33;;
11496;SDS011;5805;51.542;7.230;2023-04-06T00:51:57;9.57;;;6.20;;
11496;SDS011;5805;51.542;7.230;2023-04-06T00:54:25;10.33;;;6.67;;
11496;SDS011;5805;51.542;7.230;2023-04-06T00:56:50;10.68;;;6.25;;
11496;SDS011;5805;51.542;7.230;2023-04-06T00:59:16;11.03;;;5.73;;
11496;SDS011;5805;51.542;7.230;2023-04-06T01:01:42;7.93;;;6.37;;
11496;SDS011;5805;51.542;7.230;2023-04-06T01:04:08;7.80;;;6.17;;
11496;SDS011;5805;51.542;7.230;2023-04-06T01:06:34;9.93;;;6.13;;
11496;SDS011;5805;51.542;7.230;2023-04-06T01:08:59;9.97;;;6.43;;
11496;SDS011;5805;51.542;7.230;2023-04-06T01:11:27;10.53;;;6.50;;
11496;SDS011;5805;51.542;7.230;2023-04-06T01:13:53;9.73;;;6.63;;
11496;SDS011;5805;51.542;7.230;2023-04-06T01:16:19;8.10;;;6.10;;
11496;SDS011;5805;51.542;7.230;2023-04-06T01:18:44;10.80;;;6.30;;
11496;SDS011;5805;51.542;7.230;2023-04-06T01:21:10;9.73;;;5.80;;
11496;SDS011;5805;51.542;7.230;2023-04-06T01:23:37;7.03;;;5.50;;
11496;SDS011;5805;51.542;7.230;2023-04-06T01:26:03;12.00;;;6.43;;
11496;SDS011;5805;51.542;7.230;2023-04-06T01:28:29;9.73;;;6.53;;
11496;SDS011;5805;51.542;7.230;2023-04-06T01:30:54;8.67;;;6.20;;
11496;SDS011;5805;51.542;7.230;2023-04-06T01:33:20;10.30;;;5.93;;
11496;SDS011;5805;51.542;7.230;2023-04-06T01:35:46;8.43;;;6.17;;
11496;SDS011;5805;51.542;7.230;2023-04-06T01:38:12;8.87;;;6.73;;
11496;SDS011;5805;51.542;7.230;2023-04-06T01:40:39;13.77;;;6.47;;
11496;SDS011;5805;51.542;7.230;2023-04-06T01:43:04;9.93;;;6.57;;
11496;SDS011;5805;51.542;7.230;2023-04-06T01:45:30;12.63;;;6.50;;
11496;SDS011;5805;51.542;7.230;2023-04-06T01:47:56;9.83;;;6.70;;
11496;SDS011;5805;51.542;7.230;2023-04-06T01:50:22;16.13;;;6.83;;
11496;SDS011;5805;51.542;7.230;2023-04-06T01:52:47;11.27;;;6.57;;
11496;SDS011;5805;51.542;7.230;2023-04-06T01:55:13;9.63;;;6.53;;
11496;SDS011;5805;51.542;7.230;2023-04-06T01:57:40;9.70;;;6.33;;
11496;SDS011;5805;51.542;7.230;2023-04-06T02:00:06;11.90;;;6.07;;
11496;SDS011;5805;51.542;7.230;2023-04-06T02:02:33;9.60;;;5.57;;
11496;SDS011;5805;51.542;7.230;2023-04-06T02:04:59;9.27;;;6.40;;
11496;SDS011;5805;51.542;7.230;2023-04-06T02:07:24;8.17;;;5.77;;
11496;SDS011;5805;51.542;7.230;2023-04-06T02:09:53;14.10;;;6.50;;
11496;SDS011;5805;51.542;7.230;2023-04-06T02:12:19;11.77;;;6.93;;
11496;SDS011;5805;51.542;7.230;2023-04-06T02:14:47;13.37;;;6.77;;
11496;SDS011;5805;51.542;7.230;2023-04-06T02:17:12;10.43;;;6.73;;
11496;SDS011;5805;51.542;7.230;2023-04-06T02:19:38;11.47;;;6.70;;
11496;SDS011;5805;51.542;7.230;2023-04-06T02:22:04;8.30;;;6.37;;
11496;SDS011;5805;51.542;7.230;2023-04-06T02:24:29;7.13;;;5.70;;
11496;SDS011;5805;51.542;7.230;2023-04-06T02:26:55;8.87;;;5.90;;
11496;SDS011;5805;51.542;7.230;2023-04-06T02:29:22;7.87;;;5.93;;
11496;SDS011;5805;51.542;7.230;2023-04-06T02:31:50;7.47;;;5.70;;
11496;SDS011;5805;51.542;7.230;2023-04-06T02:34:15;10.67;;;6.13;;
11496;SDS011;5805;51.542;7.230;2023-04-06T02:36:41;9.57;;;6.60;;
11496;SDS011;5805;51.542;7.230;2023-04-06T02:39:07;10.57;;;5.93;;
11496;SDS011;5805;51.542;7.230;2023-04-06T02:41:32;8.63;;;5.63;;
11496;SDS011;5805;51.542;7.230;2023-04-06T02:43:58;9.60;;;5.67;;
11496;SDS011;5805;51.542;7.230;2023-04-06T02:46:24;8.50;;;6.30;;
11496;SDS011;5805;51.542;7.230;2023-04-06T02:48:51;10.43;;;6.53;;
11496;SDS011;5805;51.542;7.230;2023-04-06T02:51:17;11.87;;;6.63;;
11496;SDS011;5805;51.542;7.230;2023-04-06T02:53:42;13.27;;;6.10;;
11496;SDS011;5805;51.542;7.230;2023-04-06T02:56:08;8.93;;;6.40;;
11496;SDS011;5805;51.542;7.230;2023-04-06T02:58:34;12.60;;;7.10;;
11496;SDS011;5805;51.542;7.230;2023-04-06T03:01:00;7.80;;;5.67;;
11496;SDS011;5805;51.542;7.230;2023-04-06T03:03:25;8.70;;;6.33;;
11496;SDS011;5805;51.542;7.230;2023-04-06T03:05:52;10.63;;;6.53;;
11496;SDS011;5805;51.542;7.230;2023-04-06T03:08:18;10.13;;;6.63;;
11496;SDS011;5805;51.542;7.230;2023-04-06T03:10:44;12.30;;;6.93;;
11496;SDS011;5805;51.542;7.230;2023-04-06T03:13:09;9.80;;;6.53;;
11496;SDS011;5805;51.542;7.230;2023-04-06T03:15:35;10.70;;;6.70;;
11496;SDS011;5805;51.542;7.230;2023-04-06T03:18:01;11.10;;;6.63;;
11496;SDS011;5805;51.542;7.230;2023-04-06T03:20:27;19.70;;;7.53;;
11496;SDS011;5805;51.542;7.230;2023-04-06T03:22:54;9.13;;;6.70;;
11496;SDS011;5805;51.542;7.230;2023-04-06T03:25:19;10.23;;;7.30;;
11496;SDS011;5805;51.542;7.230;2023-04-06T03:27:45;9.93;;;6.70;;
11496;SDS011;5805;51.542;7.230;2023-04-06T03:30:11;18.20;;;7.33;;
11496;SDS011;5805;51.542;7.230;2023-04-06T03:32:37;11.37;;;6.97;;
11496;SDS011;5805;51.542;7.230;2023-04-06T03:35:03;10.97;;;7.13;;
11496;SDS011;5805;51.542;7.230;2023-04-06T03:37:29;8.20;;;6.07;;
11496;SDS011;5805;51.542;7.230;2023-04-06T03:39:56;9.37;;;6.37;;
11496;SDS011;5805;51.542;7.230;2023-04-06T03:42:22;9.33;;;6.20;;
11496;SDS011;5805;51.542;7.230;2023-04-06T03:44:48;10.43;;;7.13;;
11496;SDS011;5805;51.542;7.230;2023-04-06T03:47:13;10.57;;;6.87;;
11496;SDS011;5805;51.542;7.230;2023-04-06T03:49:39;8.70;;;6.17;;
11496;SDS011;5805;51.542;7.230;2023-04-06T03:52:05;10.43;;;6.83;;
11496;SDS011;5805;51.542;7.230;2023-04-06T03:54:31;11.90;;;6.57;;
11496;SDS011;5805;51.542;7.230;2023-04-06T03:56:58;11.23;;;6.80;;
11496;SDS011;5805;51.542;7.230;2023-04-06T03:59:24;9.77;;;7.20;;
11496;SDS011;5805;51.542;7.230;2023-04-06T04:01:49;11.30;;;7.10;;
11496;SDS011;5805;51.542;7.230;2023-04-06T04:04:15;7.80;;;6.50;;
11496;SDS011;5805;51.542;7.230;2023-04-06T04:06:41;11.03;;;6.77;;
11496;SDS011;5805;51.542;7.230;2023-04-06T04:09:06;9.63;;;6.90;;
11496;SDS011;5805;51.542;7.230;2023-04-06T04:11:32;10.33;;;7.30;;
11496;SDS011;5805;51.542;7.230;2023-04-06T04:13:59;10.07;;;6.77;;
11496;SDS011;5805;51.542;7.230;2023-04-06T04:16:25;10.27;;;6.23;;
11496;SDS011;5805;51.542;7.230;2023-04-06T04:18:51;11.07;;;7.27;;
11496;SDS011;5805;51.542;7.230;2023-04-06T04:21:17;11.27;;;6.53;;
11496;SDS011;5805;51.542;7.230;2023-04-06T04:23:42;16.13;;;7.47;;
11496;SDS011;5805;51.542;7.230;2023-04-06T04:26:08;10.10;;;6.77;;
11496;SDS011;5805;51.542;7.230;2023-04-06T04:28:34;11.67;;;6.83;;
11496;SDS011;5805;51.542;7.230;2023-04-06T04:31:01;11.83;;;6.70;;
11496;SDS011;5805;51.542;7.230;2023-04-06T04:33:27;13.63;;;7.10;;
11496;SDS011;5805;51.542;7.230;2023-04-06T04:35:52;8.90;;;6.93;;
11496;SDS011;5805;51.542;7.230;2023-04-06T04:38:18;9.13;;;6.70;;
11496;SDS011;5805;51.542;7.230;2023-04-06T04:40:44;11.07;;;6.33;;
11496;SDS011;5805;51.542;7.230;2023-04-06T04:43:10;14.00;;;7.53;;
11496;SDS011;5805;51.542;7.230;2023-04-06T04:45:35;10.87;;;7.07;;
11496;SDS011;5805;51.542;7.230;2023-04-06T04:48:03;10.60;;;7.13;;
11496;SDS011;5805;51.542;7.230;2023-04-06T04:50:28;10.30;;;6.80;;
11496;SDS011;5805;51.542;7.230;2023-04-06T04:52:54;14.20;;;6.63;;
11496;SDS011;5805;51.542;7.230;2023-04-06T04:55:20;9.40;;;6.33;;
11496;SDS011;5805;51.542;7.230;2023-04-06T04:57:46;10.03;;;7.47;;
11496;SDS011;5805;51.542;7.230;2023-04-06T05:00:12;9.70;;;7.07;;
11496;SDS011;5805;51.542;7.230;2023-04-06T05:02:38;10.97;;;6.60;;
11496;SDS011;5805;51.542;7.230;2023-04-06T05:05:06;10.07;;;6.53;;
11496;SDS011;5805;51.542;7.230;2023-04-06T05:07:32;11.77;;;6.63;;
11496;SDS011;5805;51.542;7.230;2023-04-06T05:09:58;11.37;;;6.53;;
11496;SDS011;5805;51.542;7.230;2023-04-06T05:12:23;10.63;;;6.97;;
11496;SDS011;5805;51.542;7.230;2023-04-06T05:14:49;12.57;;;7.27;;
11496;SDS011;5805;51.542;7.230;2023-04-06T05:17:15;12.33;;;7.70;;
11496;SDS011;5805;51.542;7.230;2023-04-06T05:19:41;14.97;;;7.60;;
11496;SDS011;5805;51.542;7.230;2023-04-06T05:22:08;17.00;;;7.60;;
11496;SDS011;5805;51.542;7.230;2023-04-06T05:24:34;14.67;;;7.37;;
11496;SDS011;5805;51.542;7.230;2023-04-06T05:26:59;10.00;;;7.13;;
11496;SDS011;5805;51.542;7.230;2023-04-06T05:29:25;12.83;;;7.33;;
11496;SDS011;5805;51.542;7.230;2023-04-06T05:31:51;11.53;;;7.30;;
11496;SDS011;5805;51.542;7.230;2023-04-06T05:34:17;12.37;;;7.80;;
11496;SDS011;5805;51.542;7.230;2023-04-06T05:36:42;10.90;;;7.07;;
11496;SDS011;5805;51.542;7.230;2023-04-06T05:39:10;13.27;;;7.40;;
11496;SDS011;5805;51.542;7.230;2023-04-06T05:41:35;11.40;;;7.87;;
11496;SDS011;5805;51.542;7.230;2023-04-06T05:44:01;11.63;;;7.30;;
11496;SDS011;5805;51.542;7.230;2023-04-06T05:46:27;10.77;;;7.13;;
11496;SDS011;5805;51.542;7.230;2023-04-06T05:48:53;15.43;;;7.83;;
11496;SDS011;5805;51.542;7.230;2023-04-06T05:51:18;11.83;;;6.60;;
11496;SDS011;5805;51.542;7.230;2023-04-06T05:53:44;12.03;;;6.93;;
11496;SDS011;5805;51.542;7.230;2023-04-06T05:56:12;15.83;;;7.43;;
11496;SDS011;5805;51.542;7.230;2023-04-06T05:58:38;14.80;;;7.37;;
11496;SDS011;5805;51.542;7.230;2023-04-06T06:01:03;15.23;;;8.18;;
11496;SDS011;5805;51.542;7.230;2023-04-06T06:03:29;12.80;;;7.13;;
11496;SDS011;5805;51.542;7.230;2023-04-06T06:05:59;13.80;;;7.63;;
11496;SDS011;5805;51.542;7.230;2023-04-06T06:08:25;16.10;;;8.43;;
11496;SDS011;5805;51.542;7.230;2023-04-06T06:10:50;13.93;;;6.82;;
11496;SDS011;5805;51.542;7.230;2023-04-06T06:13:17;11.50;;;6.60;;
11496;SDS011;5805;51.542;7.230;2023-04-06T06:15:44;10.07;;;6.15;;
11496;SDS011;5805;51.542;7.230;2023-04-06T06:18:11;8.98;;;5.20;;
11496;SDS011;5805;51.542;7.230;2023-04-06T06:20:37;9.70;;;5.82;;
11496;SDS011;5805;51.542;7.230;2023-04-06T06:23:02;7.97;;;5.90;;
11496;SDS011;5805;51.542;7.230;2023-04-06T06:25:28;13.85;;;4.78;;
11496;SDS011;5805;51.542;7.230;2023-04-06T06:27:54;6.85;;;4.60;;
11496;SDS011;5805;51.542;7.230;2023-04-06T06:30:21;8.52;;;4.28;;
11496;SDS011;5805;51.542;7.230;2023-04-06T06:32:47;6.25;;;4.55;;
11496;SDS011;5805;51.542;7.230;2023-04-06T06:35:12;6.30;;;4.30;;
11496;SDS011;5805;51.542;7.230;2023-04-06T06:37:38;6.43;;;3.75;;
11496;SDS011;5805;51.542;7.230;2023-04-06T06:40:05;8.32;;;4.10;;
11496;SDS011;5805;51.542;7.230;2023-04-06T06:42:31;7.22;;;4.07;;
11496;SDS011;5805;51.542;7.230;2023-04-06T06:44:57;7.32;;;4.13;;
11496;SDS011;5805;51.542;7.230;2023-04-06T06:47:24;8.45;;;4.72;;
11496;SDS011;5805;51.542;7.230;2023-04-06T06:49:50;8.80;;;4.47;;
11496;SDS011;5805;51.542;7.230;2023-04-06T06:52:15;8.98;;;4.40;;
11496;SDS011;5805;51.542;7.230;2023-04-06T06:54:41;6.32;;;4.28;;
11496;SDS011;5805;51.542;7.230;2023-04-06T06:57:07;6.88;;;4.72;;
11496;SDS011;5805;51.542;7.230;2023-04-06T06:59:33;8.32;;;4.30;;
11496;SDS011;5805;51.542;7.230;2023-04-06T07:01:58;7.65;;;4.20;;
11496;SDS011;5805;51.542;7.230;2023-04-06T07:04:25;7.03;;;4.53;;
11496;SDS011;5805;51.542;7.230;2023-04-06T07:06:51;12.10;;;4.93;;
11496;SDS011;5805;51.542;7.230;2023-04-06T07:09:17;6.40;;;4.47;;
11496;SDS011;5805;51.542;7.230;2023-04-06T07:11:43;9.88;;;4.25;;
11496;SDS011;5805;51.542;7.230;2023-04-06T07:14:08;7.85;;;4.82;;
11496;SDS011;5805;51.542;7.230;2023-04-06T07:16:34;6.07;;;4.60;;
11496;SDS011;5805;51.542;7.230;2023-04-06T07:19:00;7.35;;;4.78;;
11496;SDS011;5805;51.542;7.230;2023-04-06T07:21:27;5.97;;;4.90;;
11496;SDS011;5805;51.542;7.230;2023-04-06T07:23:53;6.18;;;4.88;;
11496;SDS011;5805;51.542;7.230;2023-04-06T07:26:19;8.23;;;5.25;;
11496;SDS011;5805;51.542;7.230;2023-04-06T07:28:44;8.45;;;4.53;;
11496;SDS011;5805;51.542;7.230;2023-04-06T07:31:10;8.20;;;5.90;;
11496;SDS011;5805;51.542;7.230;2023-04-06T07:33:36;7.63;;;4.78;;
11496;SDS011;5805;51.542;7.230;2023-04-06T07:36:02;10.48;;;4.90;;
11496;SDS011;5805;51.542;7.230;2023-04-06T07:38:29;10.02;;;5.10;;
11496;SDS011;5805;51.542;7.230;2023-04-06T07:40:55;8.23;;;5.03;;
11496;SDS011;5805;51.542;7.230;2023-04-06T07:43:21;6.95;;;4.22;;
11496;SDS011;5805;51.542;7.230;2023-04-06T07:45:47;6.32;;;4.40;;
11496;SDS011;5805;51.542;7.230;2023-04-06T07:48:12;6.72;;;4.95;;
11496;SDS011;5805;51.542;7.230;2023-04-06T07:50:38;10.02;;;5.40;;
11496;SDS011;5805;51.542;7.230;2023-04-06T07:53:04;7.53;;;4.65;;
11496;SDS011;5805;51.542;7.230;2023-04-06T07:55:31;6.68;;;4.78;;
11496;SDS011;5805;51.542;7.230;2023-04-06T07:57:57;7.95;;;5.18;;
11496;SDS011;5805;51.542;7.230;2023-04-06T08:00:23;8.85;;;5.20;;
11496;SDS011;5805;51.542;7.230;2023-04-06T08:02:49;5.90;;;4.72;;
11496;SDS011;5805;51.542;7.230;2023-04-06T08:05:14;6.07;;;4.70;;
11496;SDS011;5805;51.542;7.230;2023-04-06T08:07:40;6.57;;;4.88;;
11496;SDS011;5805;51.542;7.230;2023-04-06T08:10:06;9.75;;;5.93;;
11496;SDS011;5805;51.542;7.230;2023-04-06T08:12:34;6.80;;;5.10;;
11496;SDS011;5805;51.542;7.230;2023-04-06T08:15:00;10.75;;;5.30;;
11496;SDS011;5805;51.542;7.230;2023-04-06T08:17:25;7.00;;;4.53;;
11496;SDS011;5805;51.542;7.230;2023-04-06T08:19:51;7.53;;;4.88;;
11496;SDS011;5805;51.542;7.230;2023-04-06T08:22:17;5.82;;;4.45;;
11496;SDS011;5805;51.542;7.230;2023-04-06T08:24:43;7.78;;;4.95;;
11496;SDS011;5805;51.542;7.230;2023-04-06T08:27:08;6.43;;;5.07;;
11496;SDS011;5805;51.542;7.230;2023-04-06T08:29:35;5.75;;;4.82;;
11496;SDS011;5805;51.542;7.230;2023-04-06T08:32:01;7.13;;;5.50;;
11496;SDS011;5805;51.542;7.230;2023-04-06T08:34:27;12.40;;;7.30;;
11496;SDS011;5805;51.542;7.230;2023-04-06T08:36:53;7.85;;;6.22;;
11496;SDS011;5805;51.542;7.230;2023-04-06T08:39:18;7.68;;;5.15;;
11496;SDS011;5805;51.542;7.230;2023-04-06T08:41:44;10.48;;;5.40;;
11496;SDS011;5805;51.542;7.230;2023-04-06T08:44:10;9.00;;;5.55;;
11496;SDS011;5805;51.542;7.230;2023-04-06T08:46:38;8.85;;;5.55;;
11496;SDS011;5805;51.542;7.230;2023-04-06T08:49:03;7.07;;;5.55;;
11496;SDS011;5805;51.542;7.230;2023-04-06T08:51:29;8.18;;;5.63;;
11496;SDS011;5805;51.542;7.230;2023-04-06T08:53:56;8.18;;;5.57;;
11496;SDS011;5805;51.542;7.230;2023-04-06T08:56:23;9.32;;;5.88;;
11496;SDS011;5805;51.542;7.230;2023-04-06T08:58:49;11.18;;;5.97;;
11496;SDS011;5805;51.542;7.230;2023-04-06T09:01:17;10.05;;;6.32;;
11496;SDS011;5805;51.542;7.230;2023-04-06T09:03:48;8.13;;;6.03;;
11496;SDS011;5805;51.542;7.230;2023-04-06T09:06:14;10.18;;;7.00;;
11496;SDS011;5805;51.542;7.230;2023-04-06T09:08:41;9.60;;;6.82;;
11496;SDS011;5805;51.542;7.230;2023-04-06T09:11:06;10.10;;;6.82;;
11496;SDS011;5805;51.542;7.230;2023-04-06T09:13:44;9.68;;;7.65;;
11496;SDS011;5805;51.542;7.230;2023-04-06T09:16:11;9.55;;;7.43;;
11496;SDS011;5805;51.542;7.230;2023-04-06T09:18:36;13.55;;;8.73;;
11496;SDS011;5805;51.542;7.230;2023-04-06T09:21:04;12.35;;;9.27;;
11496;SDS011;5805;51.542;7.230;2023-04-06T09:23:31;10.93;;;8.30;;
11496;SDS011;5805;51.542;7.230;2023-04-06T09:26:08;11.40;;;8.35;;
11496;SDS011;5805;51.542;7.230;2023-04-06T09:28:41;12.18;;;8.23;;
11496;SDS011;5805;51.542;7.230;2023-04-06T09:31:08;13.00;;;8.25;;
11496;SDS011;5805;51.542;7.230;2023-04-06T09:33:34;9.55;;;8.02;;
11496;SDS011;5805;51.542;7.230;2023-04-06T09:36:04;11.65;;;7.93;;
11496;SDS011;5805;51.542;7.230;2023-04-06T09:38:30;10.15;;;7.88;;
11496;SDS011;5805;51.542;7.230;2023-04-06T09:40:56;10.65;;;7.97;;
11496;SDS011;5805;51.542;7.230;2023-04-06T09:43:25;10.88;;;7.88;;
11496;SDS011;5805;51.542;7.230;2023-04-06T09:45:51;11.15;;;8.07;;
11496;SDS011;5805;51.542;7.230;2023-04-06T09:48:18;9.50;;;7.70;;
11496;SDS011;5805;51.542;7.230;2023-04-06T09:50:45;14.35;;;10.60;;
11496;SDS011;5805;51.542;7.230;2023-04-06T09:53:13;10.48;;;7.75;;
11496;SDS011;5805;51.542;7.230;2023-04-06T09:55:40;12.43;;;8.73;;
11496;SDS011;5805;51.542;7.230;2023-04-06T09:58:09;12.18;;;8.23;;
11496;SDS011;5805;51.542;7.230;2023-04-06T10:00:40;11.57;;;8.80;;
11496;SDS011;5805;51.542;7.230;2023-04-06T10:03:13;12.40;;;9.02;;
11496;SDS011;5805;51.542;7.230;2023-04-06T10:05:46;13.48;;;8.18;;
11496;SDS011;5805;51.542;7.230;2023-04-06T10:08:16;14.52;;;8.90;;
11496;SDS011;5805;51.542;7.230;2023-04-06T10:10:44;12.63;;;8.40;;
11496;SDS011;5805;51.542;7.230;2023-04-06T10:13:10;15.77;;;9.63;;
11496;SDS011;5805;51.542;7.230;2023-04-06T10:15:36;10.45;;;8.52;;
11496;SDS011;5805;51.542;7.230;2023-04-06T10:18:03;11.60;;;8.77;;
11496;SDS011;5805;51.542;7.230;2023-04-06T10:20:31;15.63;;;9.25;;
11496;SDS011;5805;51.542;7.230;2023-04-06T10:23:04;14.82;;;9.00;;
11496;SDS011;5805;51.542;7.230;2023-04-06T10:25:36;11.82;;;8.38;;
11496;SDS011;5805;51.542;7.230;2023-04-06T10:28:01;11.45;;;8.70;;
11496;SDS011;5805;51.542;7.230;2023-04-06T10:30:30;11.43;;;8.68;;
11496;SDS011;5805;51.542;7.230;2023-04-06T10:32:57;13.90;;;9.05;;
11496;SDS011;5805;51.542;7.230;2023-04-06T10:35:23;10.90;;;8.45;;
11496;SDS011;5805;51.542;7.230;2023-04-06T10:38:01;12.63;;;9.50;;
11496;SDS011;5805;51.542;7.230;2023-04-06T10:40:28;11.90;;;8.75;;
11496;SDS011;5805;51.542;7.230;2023-04-06T10:43:06;15.93;;;10.02;;
11496;SDS011;5805;51.542;7.230;2023-04-06T10:45:32;12.48;;;9.75;;
11496;SDS011;5805;51.542;7.230;2023-04-06T10:47:59;13.32;;;9.30;;
11496;SDS011;5805;51.542;7.230;2023-04-06T10:50:25;12.30;;;9.63;;
11496;SDS011;5805;51.542;7.230;2023-04-06T10:53:00;10.85;;;8.60;;
11496;SDS011;5805;51.542;7.230;2023-04-06T10:55:27;11.77;;;9.48;;
11496;SDS011;5805;51.542;7.230;2023-04-06T10:57:55;20.33;;;10.15;;
11496;SDS011;5805;51.542;7.230;2023-04-06T11:00:21;14.98;;;10.07;;
11496;SDS011;5805;51.542;7.230;2023-04-06T11:02:47;14.27;;;9.95;;
11496;SDS011;5805;51.542;7.230;2023-04-06T11:05:14;13.02;;;9.68;;
11496;SDS011;5805;51.542;7.230;2023-04-06T11:07:40;14.68;;;9.63;;
11496;SDS011;5805;51.542;7.230;2023-04-06T11:10:06;13.48;;;9.93;;
11496;SDS011;5805;51.542;7.230;2023-04-06T11:12:33;12.77;;;9.60;;
11496;SDS011;5805;51.542;7.230;2023-04-06T11:15:00;11.82;;;8.77;;
11496;SDS011;5805;51.542;7.230;2023-04-06T11:17:27;13.32;;;10.05;;
11496;SDS011;5805;51.542;7.230;2023-04-06T11:19:53;13.80;;;11.73;;
11496;SDS011;5805;51.542;7.230;2023-04-06T11:22:19;13.68;;;11.35;;
11496;SDS011;5805;51.542;7.230;2023-04-06T11:24:45;15.80;;;11.18;;
11496;SDS011;5805;51.542;7.230;2023-04-06T11:27:11;13.70;;;11.10;;
11496;SDS011;5805;51.542;7.230;2023-04-06T11:29:37;17.48;;;11.45;;
11496;SDS011;5805;51.542;7.230;2023-04-06T11:32:04;14.50;;;10.63;;
11496;SDS011;5805;51.542;7.230;2023-04-06T11:34:31;12.70;;;10.18;;
11496;SDS011;5805;51.542;7.230;2023-04-06T11:36:59;13.40;;;11.40;;
11496;SDS011;5805;51.542;7.230;2023-04-06T11:39:26;15.38;;;12.38;;
11496;SDS011;5805;51.542;7.230;2023-04-06T11:41:54;16.15;;;12.73;;
11496;SDS011;5805;51.542;7.230;2023-04-06T11:44:28;16.38;;;13.48;;
11496;SDS011;5805;51.542;7.230;2023-04-06T11:46:56;14.18;;;12.30;;
11496;SDS011;5805;51.542;7.230;2023-04-06T11:49:26;16.63;;;13.10;;
11496;SDS011;5805;51.542;7.230;2023-04-06T11:51:52;18.20;;;13.20;;
11496;SDS011;5805;51.542;7.230;2023-04-06T11:54:17;20.02;;;14.02;;
11496;SDS011;5805;51.542;7.230;2023-04-06T11:56:53;16.27;;;12.23;;
11496;SDS011;5805;51.542;7.230;2023-04-06T11:59:19;13.45;;;11.00;;
11496;SDS011;5805;51.542;7.230;2023-04-06T12:01:45;15.05;;;10.68;;
11496;SDS011;5805;51.542;7.230;2023-04-06T12:04:11;14.55;;;10.65;;
11496;SDS011;5805;51.542;7.230;2023-04-06T12:06:38;17.05;;;11.73;;
11496;SDS011;5805;51.542;7.230;2023-04-06T12:09:04;15.70;;;12.30;;
11496;SDS011;5805;51.542;7.230;2023-04-06T12:11:29;14.18;;;11.60;;
11496;SDS011;5805;51.542;7.230;2023-04-06T12:13:55;13.32;;;10.27;;
11496;SDS011;5805;51.542;7.230;2023-04-06T12:16:21;13.80;;;12.30;;
11496;SDS011;5805;51.542;7.230;2023-04-06T12:18:47;13.20;;;11.23;;
11496;SDS011;5805;51.542;7.230;2023-04-06T12:21:12;16.02;;;10.45;;
11496;SDS011;5805;51.542;7.230;2023-04-06T12:23:39;13.48;;;10.30;;
11496;SDS011;5805;51.542;7.230;2023-04-06T12:26:05;12.07;;;10.00;;
11496;SDS011;5805;51.542;7.230;2023-04-06T12:28:31;13.27;;;10.15;;
11496;SDS011;5805;51.542;7.230;2023-04-06T12:30:56;13.55;;;10.32;;
11496;SDS011;5805;51.542;7.230;2023-04-06T12:33:22;12.40;;;9.75;;
11496;SDS011;5805;51.542;7.230;2023-04-06T12:35:48;11.15;;;9.02;;
11496;SDS011;5805;51.542;7.230;2023-04-06T12:38:14;12.75;;;9.55;;
11496;SDS011;5805;51.542;7.230;2023-04-06T12:40:42;11.95;;;9.85;;
11496;SDS011;5805;51.542;7.230;2023-04-06T12:43:07;11.02;;;8.77;;
11496;SDS011;5805;51.542;7.230;2023-04-06T12:45:33;13.45;;;9.45;;
11496;SDS011;5805;51.542;7.230;2023-04-06T12:47:59;13.95;;;9.65;;
11496;SDS011;5805;51.542;7.230;2023-04-06T12:50:25;12.63;;;9.98;;
11496;SDS011;5805;51.542;7.230;2023-04-06T12:52:50;17.10;;;11.10;;
11496;SDS011;5805;51.542;7.230;2023-04-06T12:55:16;16.58;;;9.43;;
11496;SDS011;5805;51.542;7.230;2023-04-06T12:57:44;14.88;;;11.18;;
11496;SDS011;5805;51.542;7.230;2023-04-06T13:00:10;13.40;;;10.30;;
11496;SDS011;5805;51.542;7.230;2023-04-06T13:02:36;13.38;;;9.60;;
11496;SDS011;5805;51.542;7.230;2023-04-06T13:05:02;13.30;;;10.00;;
11496;SDS011;5805;51.542;7.230;2023-04-06T13:07:28;15.02;;;11.02;;
11496;SDS011;5805;51.542;7.230;2023-04-06T13:09:54;13.25;;;9.63;;
11496;SDS011;5805;51.542;7.230;2023-04-06T13:12:20;14.73;;;10.38;;
11496;SDS011;5805;51.542;7.230;2023-04-06T13:14:47;11.55;;;9.27;;
11496;SDS011;5805;51.542;7.230;2023-04-06T13:17:12;16.60;;;10.02;;
11496;SDS011;5805;51.542;7.230;2023-04-06T13:19:38;12.30;;;9.23;;
11496;SDS011;5805;51.542;7.230;2023-04-06T13:22:04;17.20;;;9.32;;
11496;SDS011;5805;51.542;7.230;2023-04-06T13:24:30;15.80;;;10.05;;
11496;SDS011;5805;51.542;7.230;2023-04-06T13:26:55;13.23;;;9.80;;
11496;SDS011;5805;51.542;7.230;2023-04-06T13:29:21;13.27;;;10.32;;
11496;SDS011;5805;51.542;7.230;2023-04-06T13:31:48;17.50;;;10.27;;
11496;SDS011;5805;51.542;7.230;2023-04-06T13:34:14;12.70;;;9.75;;
11496;SDS011;5805;51.542;7.230;2023-04-06T13:36:39;10.80;;;9.25;;
11496;SDS011;5805;51.542;7.230;2023-04-06T13:39:05;12.52;;;9.23;;
11496;SDS011;5805;51.542;7.230;2023-04-06T13:41:31;13.45;;;9.32;;
11496;SDS011;5805;51.542;7.230;2023-04-06T13:43:57;13.50;;;9.02;;
11496;SDS011;5805;51.542;7.230;2023-04-06T13:46:23;14.27;;;9.88;;
11496;SDS011;5805;51.542;7.230;2023-04-06T13:48:50;11.40;;;9.27;;
11496;SDS011;5805;51.542;7.230;2023-04-06T13:51:16;14.07;;;8.30;;
11496;SDS011;5805;51.542;7.230;2023-04-06T13:53:41;10.30;;;8.02;;
11496;SDS011;5805;51.542;7.230;2023-04-06T13:56:07;8.88;;;7.40;;
11496;SDS011;5805;51.542;7.230;2023-04-06T13:58:33;14.68;;;8.45;;
11496;SDS011;5805;51.542;7.230;2023-04-06T14:01:01;15.02;;;8.60;;
11496;SDS011;5805;51.542;7.230;2023-04-06T14:03:28;11.52;;;8.68;;
11496;SDS011;5805;51.542;7.230;2023-04-06T14:05:55;15.77;;;10.38;;
11496;SDS011;5805;51.542;7.230;2023-04-06T14:08:20;13.38;;;8.48;;
11496;SDS011;5805;51.542;7.230;2023-04-06T14:10:46;12.63;;;9.05;;
11496;SDS011;5805;51.542;7.230;2023-04-06T14:13:12;12.70;;;8.75;;
11496;SDS011;5805;51.542;7.230;2023-04-06T14:15:38;10.93;;;8.20;;
11496;SDS011;5805;51.542;7.230;2023-04-06T14:18:04;13.68;;;8.32;;
11496;SDS011;5805;51.542;7.230;2023-04-06T14:20:30;13.20;;;8.57;;
11496;SDS011;5805;51.542;7.230;2023-04-06T14:22:57;13.15;;;7.65;;
11496;SDS011;5805;51.542;7.230;2023-04-06T14:25:25;10.07;;;7.30;;
11496;SDS011;5805;51.542;7.230;2023-04-06T14:27:50;11.35;;;7.35;;
11496;SDS011;5805;51.542;7.230;2023-04-06T14:30:16;9.70;;;7.20;;
11496;SDS011;5805;51.542;7.230;2023-04-06T14:32:42;16.38;;;8.13;;
11496;SDS011;5805;51.542;7.230;2023-04-06T14:35:08;12.77;;;7.82;;
11496;SDS011;5805;51.542;7.230;2023-04-06T14:37:34;11.65;;;7.70;;
11496;SDS011;5805;51.542;7.230;2023-04-06T14:40:01;11.07;;;7.78;;
11496;SDS011;5805;51.542;7.230;2023-04-06T14:42:27;12.07;;;7.85;;
11496;SDS011;5805;51.542;7.230;2023-04-06T14:44:53;12.20;;;8.77;;